Terminal Aerodrome Forecast
Issued by NWS Grand Forks, ND

Home | Current Version | Previous Version | Text Only | Print | Product List | Glossary Off
Versions: 1 2 3 4 5 6 7 8 9 10 11 12 13 14 15 16 17 18 19

000
FTUS43 KFGF 271120
TAFGFK
TAF
KGFK 271120Z 2712/2812 15007KT P6SM FEW250
     FM271400 15013KT P6SM SCT250
     FM271700 14016G22KT P6SM BKN200
     FM280600 15015G23KT P6SM -TSRA BKN040CB
     FM281000 18013KT P6SM BKN050=

USA.gov is the U.S. government's official web portal to all federal, state and local government web resources and services.